sensor_id;sensor_type;location;lat;lon;timestamp;P1;durP1;ratioP1;P2;durP2;ratioP2
26311;SDS011;14019;56.964;24.016;2023-01-16T00:02:10;9.70;;;3.05;;
26311;SDS011;14019;56.964;24.016;2023-01-16T00:04:57;8.52;;;3.00;;
26311;SDS011;14019;56.964;24.016;2023-01-16T00:07:44;6.75;;;3.40;;
26311;SDS011;14019;56.964;24.016;2023-01-16T00:10:30;7.13;;;3.60;;
26311;SDS011;14019;56.964;24.016;2023-01-16T00:13:16;5.18;;;2.88;;
26311;SDS011;14019;56.964;24.016;2023-01-16T00:16:03;7.68;;;3.10;;
26311;SDS011;14019;56.964;24.016;2023-01-16T00:18:53;6.32;;;3.30;;
26311;SDS011;14019;56.964;24.016;2023-01-16T00:21:39;7.90;;;3.08;;
26311;SDS011;14019;56.964;24.016;2023-01-16T00:24:25;6.63;;;3.33;;
26311;SDS011;14019;56.964;24.016;2023-01-16T00:27:12;11.02;;;3.45;;
26311;SDS011;14019;56.964;24.016;2023-01-16T00:29:58;6.45;;;3.20;;
26311;SDS011;14019;56.964;24.016;2023-01-16T00:32:44;8.38;;;3.50;;
26311;SDS011;14019;56.964;24.016;2023-01-16T00:35:31;8.07;;;3.33;;
26311;SDS011;14019;56.964;24.016;2023-01-16T00:38:18;8.55;;;3.70;;
26311;SDS011;14019;56.964;24.016;2023-01-16T00:41:04;5.70;;;3.20;;
26311;SDS011;14019;56.964;24.016;2023-01-16T00:43:51;5.88;;;3.10;;
26311;SDS011;14019;56.964;24.016;2023-01-16T00:46:37;8.20;;;3.40;;
26311;SDS011;14019;56.964;24.016;2023-01-16T00:49:23;7.35;;;3.95;;
26311;SDS011;14019;56.964;24.016;2023-01-16T00:52:10;8.25;;;3.30;;
26311;SDS011;14019;56.964;24.016;2023-01-16T00:54:56;7.47;;;3.30;;
26311;SDS011;14019;56.964;24.016;2023-01-16T00:57:43;10.68;;;3.65;;
26311;SDS011;14019;56.964;24.016;2023-01-16T01:00:29;6.43;;;3.42;;
26311;SDS011;14019;56.964;24.016;2023-01-16T01:03:15;7.60;;;3.50;;
26311;SDS011;14019;56.964;24.016;2023-01-16T01:06:09;9.07;;;3.63;;
26311;SDS011;14019;56.964;24.016;2023-01-16T01:08:59;8.50;;;3.88;;
26311;SDS011;14019;56.964;24.016;2023-01-16T01:11:45;8.68;;;3.60;;
26311;SDS011;14019;56.964;24.016;2023-01-16T01:14:32;7.97;;;3.42;;
26311;SDS011;14019;56.964;24.016;2023-01-16T01:17:18;6.00;;;3.10;;
26311;SDS011;14019;56.964;24.016;2023-01-16T01:20:05;9.82;;;3.47;;
26311;SDS011;14019;56.964;24.016;2023-01-16T01:22:51;7.78;;;3.55;;
26311;SDS011;14019;56.964;24.016;2023-01-16T01:25:38;10.35;;;3.58;;
26311;SDS011;14019;56.964;24.016;2023-01-16T01:28:24;6.15;;;3.28;;
26311;SDS011;14019;56.964;24.016;2023-01-16T01:31:12;8.90;;;3.67;;
26311;SDS011;14019;56.964;24.016;2023-01-16T01:33:58;9.38;;;3.20;;
26311;SDS011;14019;56.964;24.016;2023-01-16T01:36:48;9.20;;;3.55;;
26311;SDS011;14019;56.964;24.016;2023-01-16T01:39:36;7.13;;;3.47;;
26311;SDS011;14019;56.964;24.016;2023-01-16T01:42:22;8.50;;;3.70;;
26311;SDS011;14019;56.964;24.016;2023-01-16T01:45:28;6.10;;;3.05;;
26311;SDS011;14019;56.964;24.016;2023-01-16T01:48:18;8.48;;;4.00;;
26311;SDS011;14019;56.964;24.016;2023-01-16T01:51:07;7.10;;;3.72;;
26311;SDS011;14019;56.964;24.016;2023-01-16T01:57:01;7.32;;;3.63;;
26311;SDS011;14019;56.964;24.016;2023-01-16T01:59:59;7.50;;;3.47;;
26311;SDS011;14019;56.964;24.016;2023-01-16T02:03:08;6.57;;;3.25;;
26311;SDS011;14019;56.964;24.016;2023-01-16T02:05:57;7.47;;;3.30;;
26311;SDS011;14019;56.964;24.016;2023-01-16T02:08:45;6.05;;;3.17;;
26311;SDS011;14019;56.964;24.016;2023-01-16T02:11:38;6.10;;;3.20;;
26311;SDS011;14019;56.964;24.016;2023-01-16T02:14:28;7.68;;;3.25;;
26311;SDS011;14019;56.964;24.016;2023-01-16T02:17:18;8.02;;;3.47;;
26311;SDS011;14019;56.964;24.016;2023-01-16T02:20:24;7.50;;;3.47;;
26311;SDS011;14019;56.964;24.016;2023-01-16T02:38:01;6.72;;;3.30;;
26311;SDS011;14019;56.964;24.016;2023-01-16T02:40:55;6.60;;;3.55;;
26311;SDS011;14019;56.964;24.016;2023-01-16T02:47:15;9.18;;;3.38;;
26311;SDS011;14019;56.964;24.016;2023-01-16T02:56:12;6.95;;;3.42;;
26311;SDS011;14019;56.964;24.016;2023-01-16T02:59:01;6.93;;;3.45;;
26311;SDS011;14019;56.964;24.016;2023-01-16T03:01:48;7.30;;;3.50;;
26311;SDS011;14019;56.964;24.016;2023-01-16T03:10:41;8.27;;;3.92;;
26311;SDS011;14019;56.964;24.016;2023-01-16T03:17:26;8.77;;;3.80;;
26311;SDS011;14019;56.964;24.016;2023-01-16T03:25:45;6.45;;;3.78;;
26311;SDS011;14019;56.964;24.016;2023-01-16T03:28:36;10.10;;;4.22;;
26311;SDS011;14019;56.964;24.016;2023-01-16T03:34:30;7.63;;;4.13;;
26311;SDS011;14019;56.964;24.016;2023-01-16T03:37:24;10.10;;;4.22;;
26311;SDS011;14019;56.964;24.016;2023-01-16T03:40:13;7.47;;;4.07;;
26311;SDS011;14019;56.964;24.016;2023-01-16T03:43:25;9.88;;;4.22;;
26311;SDS011;14019;56.964;24.016;2023-01-16T03:49:08;9.63;;;4.40;;
26311;SDS011;14019;56.964;24.016;2023-01-16T03:51:59;10.20;;;4.57;;
26311;SDS011;14019;56.964;24.016;2023-01-16T03:54:54;9.07;;;4.20;;
26311;SDS011;14019;56.964;24.016;2023-01-16T03:57:46;11.60;;;4.30;;
26311;SDS011;14019;56.964;24.016;2023-01-16T04:01:22;9.02;;;4.45;;
26311;SDS011;14019;56.964;24.016;2023-01-16T04:06:41;9.63;;;4.40;;
26311;SDS011;14019;56.964;24.016;2023-01-16T04:09:50;6.25;;;3.83;;
26311;SDS011;14019;56.964;24.016;2023-01-16T04:12:41;10.15;;;4.60;;
26311;SDS011;14019;56.964;24.016;2023-01-16T04:15:29;8.95;;;4.20;;
26311;SDS011;14019;56.964;24.016;2023-01-16T04:18:16;9.38;;;4.47;;
26311;SDS011;14019;56.964;24.016;2023-01-16T04:21:05;7.78;;;4.10;;
26311;SDS011;14019;56.964;24.016;2023-01-16T04:23:53;7.32;;;4.35;;
26311;SDS011;14019;56.964;24.016;2023-01-16T04:26:40;8.40;;;4.47;;
26311;SDS011;14019;56.964;24.016;2023-01-16T04:29:26;7.13;;;4.07;;
26311;SDS011;14019;56.964;24.016;2023-01-16T04:32:13;7.75;;;4.32;;
26311;SDS011;14019;56.964;24.016;2023-01-16T04:34:59;8.27;;;4.45;;
26311;SDS011;14019;56.964;24.016;2023-01-16T04:37:46;7.95;;;4.35;;
26311;SDS011;14019;56.964;24.016;2023-01-16T04:40:32;9.88;;;4.60;;
26311;SDS011;14019;56.964;24.016;2023-01-16T04:43:18;7.43;;;4.10;;
26311;SDS011;14019;56.964;24.016;2023-01-16T04:46:04;7.47;;;4.53;;
26311;SDS011;14019;56.964;24.016;2023-01-16T04:48:51;9.07;;;4.40;;
26311;SDS011;14019;56.964;24.016;2023-01-16T04:51:37;8.77;;;4.43;;
26311;SDS011;14019;56.964;24.016;2023-01-16T04:54:24;11.00;;;4.55;;
26311;SDS011;14019;56.964;24.016;2023-01-16T04:57:11;11.07;;;4.80;;
26311;SDS011;14019;56.964;24.016;2023-01-16T04:59:57;11.15;;;4.57;;
26311;SDS011;14019;56.964;24.016;2023-01-16T05:02:43;7.00;;;4.18;;
26311;SDS011;14019;56.964;24.016;2023-01-16T05:05:31;12.35;;;4.70;;
26311;SDS011;14019;56.964;24.016;2023-01-16T05:08:18;10.32;;;4.72;;
26311;SDS011;14019;56.964;24.016;2023-01-16T05:11:05;8.30;;;4.38;;
26311;SDS011;14019;56.964;24.016;2023-01-16T05:13:51;9.00;;;4.68;;
26311;SDS011;14019;56.964;24.016;2023-01-16T05:16:38;8.73;;;4.30;;
26311;SDS011;14019;56.964;24.016;2023-01-16T05:19:27;8.35;;;4.60;;
26311;SDS011;14019;56.964;24.016;2023-01-16T05:22:13;9.88;;;4.32;;
26311;SDS011;14019;56.964;24.016;2023-01-16T05:24:59;9.10;;;4.30;;
26311;SDS011;14019;56.964;24.016;2023-01-16T05:27:49;9.30;;;4.80;;
26311;SDS011;14019;56.964;24.016;2023-01-16T05:30:36;10.00;;;4.28;;
26311;SDS011;14019;56.964;24.016;2023-01-16T05:33:25;8.32;;;4.38;;
26311;SDS011;14019;56.964;24.016;2023-01-16T05:36:11;9.50;;;4.60;;
26311;SDS011;14019;56.964;24.016;2023-01-16T05:38:58;11.65;;;4.82;;
26311;SDS011;14019;56.964;24.016;2023-01-16T05:41:44;10.75;;;4.78;;
26311;SDS011;14019;56.964;24.016;2023-01-16T05:44:31;8.35;;;4.43;;
26311;SDS011;14019;56.964;24.016;2023-01-16T05:47:18;9.25;;;4.47;;
26311;SDS011;14019;56.964;24.016;2023-01-16T05:50:04;9.57;;;4.00;;
26311;SDS011;14019;56.964;24.016;2023-01-16T05:52:51;8.25;;;4.25;;
26311;SDS011;14019;56.964;24.016;2023-01-16T05:55:44;9.85;;;4.20;;
26311;SDS011;14019;56.964;24.016;2023-01-16T05:58:31;8.68;;;4.32;;
26311;SDS011;14019;56.964;24.016;2023-01-16T06:01:17;9.70;;;4.10;;
26311;SDS011;14019;56.964;24.016;2023-01-16T06:04:04;7.63;;;4.35;;
26311;SDS011;14019;56.964;24.016;2023-01-16T06:06:50;7.05;;;4.00;;
26311;SDS011;14019;56.964;24.016;2023-01-16T06:09:36;10.07;;;4.68;;
26311;SDS011;14019;56.964;24.016;2023-01-16T06:12:23;8.52;;;4.03;;
26311;SDS011;14019;56.964;24.016;2023-01-16T06:15:10;7.35;;;3.72;;
26311;SDS011;14019;56.964;24.016;2023-01-16T06:17:56;9.02;;;3.78;;
26311;SDS011;14019;56.964;24.016;2023-01-16T06:20:42;8.30;;;4.00;;
26311;SDS011;14019;56.964;24.016;2023-01-16T06:23:29;7.05;;;3.80;;
26311;SDS011;14019;56.964;24.016;2023-01-16T06:26:19;9.35;;;4.10;;
26311;SDS011;14019;56.964;24.016;2023-01-16T06:35:24;8.93;;;3.53;;
26311;SDS011;14019;56.964;24.016;2023-01-16T06:38:16;9.23;;;3.67;;
26311;SDS011;14019;56.964;24.016;2023-01-16T06:41:02;10.05;;;4.00;;
26311;SDS011;14019;56.964;24.016;2023-01-16T06:43:48;12.10;;;3.25;;
26311;SDS011;14019;56.964;24.016;2023-01-16T06:46:34;7.25;;;3.30;;
26311;SDS011;14019;56.964;24.016;2023-01-16T06:49:27;7.22;;;3.60;;
26311;SDS011;14019;56.964;24.016;2023-01-16T06:52:16;6.07;;;3.40;;
26311;SDS011;14019;56.964;24.016;2023-01-16T06:55:03;6.38;;;3.20;;
26311;SDS011;14019;56.964;24.016;2023-01-16T06:57:49;7.45;;;3.28;;
26311;SDS011;14019;56.964;24.016;2023-01-16T07:00:35;5.97;;;3.58;;
26311;SDS011;14019;56.964;24.016;2023-01-16T07:03:22;6.95;;;3.40;;
26311;SDS011;14019;56.964;24.016;2023-01-16T07:06:09;5.88;;;3.53;;
26311;SDS011;14019;56.964;24.016;2023-01-16T07:08:57;8.02;;;3.50;;
26311;SDS011;14019;56.964;24.016;2023-01-16T07:11:44;7.72;;;3.30;;
26311;SDS011;14019;56.964;24.016;2023-01-16T07:14:30;6.82;;;3.50;;
26311;SDS011;14019;56.964;24.016;2023-01-16T07:17:35;5.68;;;3.20;;
26311;SDS011;14019;56.964;24.016;2023-01-16T07:20:40;6.60;;;3.38;;
26311;SDS011;14019;56.964;24.016;2023-01-16T07:23:47;8.60;;;3.03;;
26311;SDS011;14019;56.964;24.016;2023-01-16T07:26:34;7.68;;;3.53;;
26311;SDS011;14019;56.964;24.016;2023-01-16T07:29:23;10.43;;;3.20;;
26311;SDS011;14019;56.964;24.016;2023-01-16T07:32:09;7.85;;;3.25;;
26311;SDS011;14019;56.964;24.016;2023-01-16T07:34:56;11.02;;;3.13;;
26311;SDS011;14019;56.964;24.016;2023-01-16T07:37:42;8.65;;;3.13;;
26311;SDS011;14019;56.964;24.016;2023-01-16T07:40:30;6.72;;;2.83;;
26311;SDS011;14019;56.964;24.016;2023-01-16T07:43:16;9.32;;;2.88;;
26311;SDS011;14019;56.964;24.016;2023-01-16T07:46:02;7.05;;;3.00;;
26311;SDS011;14019;56.964;24.016;2023-01-16T07:48:49;7.95;;;3.20;;
26311;SDS011;14019;56.964;24.016;2023-01-16T07:51:37;7.90;;;2.72;;
26311;SDS011;14019;56.964;24.016;2023-01-16T07:54:25;6.18;;;2.60;;
26311;SDS011;14019;56.964;24.016;2023-01-16T07:57:11;7.72;;;2.80;;
26311;SDS011;14019;56.964;24.016;2023-01-16T07:59:57;6.43;;;2.97;;
26311;SDS011;14019;56.964;24.016;2023-01-16T08:02:43;8.80;;;3.28;;
26311;SDS011;14019;56.964;24.016;2023-01-16T08:05:30;6.60;;;2.50;;
26311;SDS011;14019;56.964;24.016;2023-01-16T08:08:16;7.93;;;3.10;;
26311;SDS011;14019;56.964;24.016;2023-01-16T08:11:04;8.75;;;3.22;;
26311;SDS011;14019;56.964;24.016;2023-01-16T08:14:10;6.72;;;2.75;;
26311;SDS011;14019;56.964;24.016;2023-01-16T08:16:56;6.82;;;2.88;;
26311;SDS011;14019;56.964;24.016;2023-01-16T08:19:43;6.65;;;2.95;;
26311;SDS011;14019;56.964;24.016;2023-01-16T08:22:29;8.35;;;2.88;;
26311;SDS011;14019;56.964;24.016;2023-01-16T08:25:16;6.45;;;2.80;;
26311;SDS011;14019;56.964;24.016;2023-01-16T08:28:02;11.10;;;2.90;;
26311;SDS011;14019;56.964;24.016;2023-01-16T08:30:49;6.80;;;2.97;;
26311;SDS011;14019;56.964;24.016;2023-01-16T08:33:36;8.15;;;2.80;;
26311;SDS011;14019;56.964;24.016;2023-01-16T08:36:22;6.45;;;2.70;;
26311;SDS011;14019;56.964;24.016;2023-01-16T08:39:10;11.75;;;2.78;;
26311;SDS011;14019;56.964;24.016;2023-01-16T08:41:57;6.13;;;2.67;;
26311;SDS011;14019;56.964;24.016;2023-01-16T08:45:02;8.75;;;3.00;;
26311;SDS011;14019;56.964;24.016;2023-01-16T08:48:07;6.30;;;2.90;;
26311;SDS011;14019;56.964;24.016;2023-01-16T08:51:15;7.47;;;2.60;;
26311;SDS011;14019;56.964;24.016;2023-01-16T08:54:08;9.13;;;2.78;;
26311;SDS011;14019;56.964;24.016;2023-01-16T08:56:54;8.15;;;2.50;;
26311;SDS011;14019;56.964;24.016;2023-01-16T08:59:40;4.75;;;2.28;;
26311;SDS011;14019;56.964;24.016;2023-01-16T09:02:26;5.55;;;2.60;;
26311;SDS011;14019;56.964;24.016;2023-01-16T09:05:13;8.27;;;2.40;;
26311;SDS011;14019;56.964;24.016;2023-01-16T09:07:59;6.45;;;2.60;;
26311;SDS011;14019;56.964;24.016;2023-01-16T09:10:46;5.95;;;2.47;;
26311;SDS011;14019;56.964;24.016;2023-01-16T09:13:52;5.25;;;2.35;;
26311;SDS011;14019;56.964;24.016;2023-01-16T09:16:41;5.63;;;2.35;;
26311;SDS011;14019;56.964;24.016;2023-01-16T09:19:27;6.97;;;2.30;;
26311;SDS011;14019;56.964;24.016;2023-01-16T09:22:14;6.93;;;2.45;;
26311;SDS011;14019;56.964;24.016;2023-01-16T09:25:00;8.05;;;2.35;;
26311;SDS011;14019;56.964;24.016;2023-01-16T09:27:47;6.30;;;2.28;;
26311;SDS011;14019;56.964;24.016;2023-01-16T09:30:32;8.60;;;2.78;;
26311;SDS011;14019;56.964;24.016;2023-01-16T09:33:19;7.18;;;2.80;;
26311;SDS011;14019;56.964;24.016;2023-01-16T09:36:05;9.18;;;2.30;;
26311;SDS011;14019;56.964;24.016;2023-01-16T09:38:52;12.30;;;2.70;;
26311;SDS011;14019;56.964;24.016;2023-01-16T09:41:47;5.35;;;2.50;;
26311;SDS011;14019;56.964;24.016;2023-01-16T09:45:00;7.50;;;2.80;;
26311;SDS011;14019;56.964;24.016;2023-01-16T09:47:49;5.30;;;2.22;;
26311;SDS011;14019;56.964;24.016;2023-01-16T09:53:52;7.22;;;2.40;;
26311;SDS011;14019;56.964;24.016;2023-01-16T09:57:00;7.13;;;2.50;;
26311;SDS011;14019;56.964;24.016;2023-01-16T10:00:07;8.30;;;2.45;;
26311;SDS011;14019;56.964;24.016;2023-01-16T10:02:57;8.82;;;2.25;;
26311;SDS011;14019;56.964;24.016;2023-01-16T10:05:49;4.70;;;2.38;;
26311;SDS011;14019;56.964;24.016;2023-01-16T10:08:39;5.15;;;2.20;;
26311;SDS011;14019;56.964;24.016;2023-01-16T10:20:30;8.98;;;2.40;;
26311;SDS011;14019;56.964;24.016;2023-01-16T10:26:35;7.18;;;2.33;;
26311;SDS011;14019;56.964;24.016;2023-01-16T10:33:21;4.22;;;2.20;;
26311;SDS011;14019;56.964;24.016;2023-01-16T10:35:38;5.13;;;2.20;;
26311;SDS011;14019;56.964;24.016;2023-01-16T10:38:35;4.00;;;2.03;;
26311;SDS011;14019;56.964;24.016;2023-01-16T10:41:50;8.85;;;2.33;;
26311;SDS011;14019;56.964;24.016;2023-01-16T10:45:13;6.63;;;2.63;;
26311;SDS011;14019;56.964;24.016;2023-01-16T10:48:18;8.63;;;2.40;;
26311;SDS011;14019;56.964;24.016;2023-01-16T10:51:23;6.00;;;2.05;;
26311;SDS011;14019;56.964;24.016;2023-01-16T10:54:10;6.43;;;2.25;;
26311;SDS011;14019;56.964;24.016;2023-01-16T10:56:56;11.02;;;2.70;;
26311;SDS011;14019;56.964;24.016;2023-01-16T10:59:52;8.05;;;2.28;;
26311;SDS011;14019;56.964;24.016;2023-01-16T11:02:41;7.07;;;2.28;;
26311;SDS011;14019;56.964;24.016;2023-01-16T11:05:30;6.40;;;2.47;;
26311;SDS011;14019;56.964;24.016;2023-01-16T11:08:17;7.25;;;2.42;;
26311;SDS011;14019;56.964;24.016;2023-01-16T11:11:04;7.90;;;2.33;;
26311;SDS011;14019;56.964;24.016;2023-01-16T11:13:50;5.10;;;2.30;;
26311;SDS011;14019;56.964;24.016;2023-01-16T11:16:55;9.18;;;2.45;;
26311;SDS011;14019;56.964;24.016;2023-01-16T11:20:01;5.60;;;2.30;;
26311;SDS011;14019;56.964;24.016;2023-01-16T11:22:52;5.47;;;2.50;;
26311;SDS011;14019;56.964;24.016;2023-01-16T11:25:42;5.60;;;2.40;;
26311;SDS011;14019;56.964;24.016;2023-01-16T11:28:30;6.05;;;2.28;;
26311;SDS011;14019;56.964;24.016;2023-01-16T11:31:26;5.05;;;1.95;;
26311;SDS011;14019;56.964;24.016;2023-01-16T11:34:16;6.63;;;2.13;;
26311;SDS011;14019;56.964;24.016;2023-01-16T11:37:03;7.45;;;2.33;;
26311;SDS011;14019;56.964;24.016;2023-01-16T11:39:50;7.22;;;2.70;;
26311;SDS011;14019;56.964;24.016;2023-01-16T11:42:38;8.15;;;2.53;;
26311;SDS011;14019;56.964;24.016;2023-01-16T11:45:55;7.72;;;2.30;;
26311;SDS011;14019;56.964;24.016;2023-01-16T11:48:52;7.22;;;2.30;;
26311;SDS011;14019;56.964;24.016;2023-01-16T11:51:39;9.18;;;2.38;;
26311;SDS011;14019;56.964;24.016;2023-01-16T11:54:26;6.40;;;2.20;;
26311;SDS011;14019;56.964;24.016;2023-01-16T12:11:58;5.13;;;2.00;;
26311;SDS011;14019;56.964;24.016;2023-01-16T12:15:12;7.90;;;2.45;;
26311;SDS011;14019;56.964;24.016;2023-01-16T12:18:04;6.57;;;2.15;;
26311;SDS011;14019;56.964;24.016;2023-01-16T12:23:46;7.45;;;1.98;;
26311;SDS011;14019;56.964;24.016;2023-01-16T12:26:55;7.47;;;2.42;;
26311;SDS011;14019;56.964;24.016;2023-01-16T12:38:14;6.72;;;2.50;;
26311;SDS011;14019;56.964;24.016;2023-01-16T12:47:09;10.35;;;2.65;;
26311;SDS011;14019;56.964;24.016;2023-01-16T12:53:01;10.05;;;2.33;;
26311;SDS011;14019;56.964;24.016;2023-01-16T12:58:55;6.15;;;2.30;;
26311;SDS011;14019;56.964;24.016;2023-01-16T13:01:44;7.10;;;2.50;;
26311;SDS011;14019;56.964;24.016;2023-01-16T13:04:37;8.80;;;2.08;;
26311;SDS011;14019;56.964;24.016;2023-01-16T13:07:25;4.80;;;2.05;;
26311;SDS011;14019;56.964;24.016;2023-01-16T13:10:16;6.25;;;2.25;;
26311;SDS011;14019;56.964;24.016;2023-01-16T13:13:24;7.03;;;2.20;;
26311;SDS011;14019;56.964;24.016;2023-01-16T13:22:28;7.53;;;2.20;;
26311;SDS011;14019;56.964;24.016;2023-01-16T13:24:59;4.95;;;2.13;;
26311;SDS011;14019;56.964;24.016;2023-01-16T13:28:34;5.13;;;2.58;;
26311;SDS011;14019;56.964;24.016;2023-01-16T13:30:54;10.25;;;2.42;;
26311;SDS011;14019;56.964;24.016;2023-01-16T13:33:41;6.45;;;2.33;;
26311;SDS011;14019;56.964;24.016;2023-01-16T13:42:21;7.75;;;3.00;;
26311;SDS011;14019;56.964;24.016;2023-01-16T13:45:15;10.30;;;2.90;;
26311;SDS011;14019;56.964;24.016;2023-01-16T13:48:26;9.90;;;3.00;;
26311;SDS011;14019;56.964;24.016;2023-01-16T13:51:14;7.07;;;2.78;;
26311;SDS011;14019;56.964;24.016;2023-01-16T13:54:00;9.65;;;3.25;;
26311;SDS011;14019;56.964;24.016;2023-01-16T13:56:58;11.63;;;3.00;;
26311;SDS011;14019;56.964;24.016;2023-01-16T13:59:50;7.80;;;3.30;;
26311;SDS011;14019;56.964;24.016;2023-01-16T14:18:22;8.85;;;3.97;;
26311;SDS011;14019;56.964;24.016;2023-01-16T14:21:24;10.52;;;4.20;;
26311;SDS011;14019;56.964;24.016;2023-01-16T14:24:17;9.90;;;3.85;;
26311;SDS011;14019;56.964;24.016;2023-01-16T14:27:04;8.65;;;4.30;;
26311;SDS011;14019;56.964;24.016;2023-01-16T14:29:52;8.68;;;3.97;;
26311;SDS011;14019;56.964;24.016;2023-01-16T14:32:44;13.38;;;3.97;;
26311;SDS011;14019;56.964;24.016;2023-01-16T14:35:40;12.52;;;4.15;;
26311;SDS011;14019;56.964;24.016;2023-01-16T14:38:28;9.77;;;3.97;;
26311;SDS011;14019;56.964;24.016;2023-01-16T14:41:17;8.00;;;3.75;;
26311;SDS011;14019;56.964;24.016;2023-01-16T14:44:22;8.15;;;4.00;;
26311;SDS011;14019;56.964;24.016;2023-01-16T14:47:27;7.57;;;4.10;;
26311;SDS011;14019;56.964;24.016;2023-01-16T14:50:42;15.70;;;4.20;;
26311;SDS011;14019;56.964;24.016;2023-01-16T14:53:58;9.15;;;4.15;;
26311;SDS011;14019;56.964;24.016;2023-01-16T14:57:11;9.18;;;4.35;;
26311;SDS011;14019;56.964;24.016;2023-01-16T14:59:59;8.73;;;4.65;;
26311;SDS011;14019;56.964;24.016;2023-01-16T15:05:50;9.95;;;4.50;;
26311;SDS011;14019;56.964;24.016;2023-01-16T15:08:39;12.85;;;4.80;;
26311;SDS011;14019;56.964;24.016;2023-01-16T15:11:28;14.82;;;4.80;;
26311;SDS011;14019;56.964;24.016;2023-01-16T15:14:26;9.73;;;4.38;;
26311;SDS011;14019;56.964;24.016;2023-01-16T15:17:35;9.95;;;4.53;;
26311;SDS011;14019;56.964;24.016;2023-01-16T15:20:45;11.82;;;4.55;;
26311;SDS011;14019;56.964;24.016;2023-01-16T15:23:51;11.70;;;5.10;;
26311;SDS011;14019;56.964;24.016;2023-01-16T15:29:55;14.15;;;5.40;;
26311;SDS011;14019;56.964;24.016;2023-01-16T15:32:55;10.27;;;4.30;;
26311;SDS011;14019;56.964;24.016;2023-01-16T15:36:01;15.40;;;5.05;;
26311;SDS011;14019;56.964;24.016;2023-01-16T15:38:52;12.55;;;5.13;;
26311;SDS011;14019;56.964;24.016;2023-01-16T15:41:39;11.23;;;5.10;;
26311;SDS011;14019;56.964;24.016;2023-01-16T15:44:44;9.07;;;4.20;;
26311;SDS011;14019;56.964;24.016;2023-01-16T15:51:03;9.88;;;4.70;;
26311;SDS011;14019;56.964;24.016;2023-01-16T15:53:50;8.07;;;4.68;;
26311;SDS011;14019;56.964;24.016;2023-01-16T15:56:41;10.70;;;4.72;;
26311;SDS011;14019;56.964;24.016;2023-01-16T15:59:38;10.65;;;4.28;;
26311;SDS011;14019;56.964;24.016;2023-01-16T16:02:25;13.73;;;4.28;;
26311;SDS011;14019;56.964;24.016;2023-01-16T16:05:21;12.55;;;4.30;;
26311;SDS011;14019;56.964;24.016;2023-01-16T16:08:10;8.18;;;4.28;;
26311;SDS011;14019;56.964;24.016;2023-01-16T16:10:59;11.65;;;4.80;;
26311;SDS011;14019;56.964;24.016;2023-01-16T16:14:05;11.10;;;4.68;;
26311;SDS011;14019;56.964;24.016;2023-01-16T16:17:19;10.20;;;4.30;;
26311;SDS011;14019;56.964;24.016;2023-01-16T16:23:24;9.77;;;3.90;;
26311;SDS011;14019;56.964;24.016;2023-01-16T16:26:11;12.05;;;4.90;;
26311;SDS011;14019;56.964;24.016;2023-01-16T16:29:00;11.15;;;4.50;;
26311;SDS011;14019;56.964;24.016;2023-01-16T16:31:46;9.90;;;4.45;;
26311;SDS011;14019;56.964;24.016;2023-01-16T16:34:34;11.10;;;4.63;;
26311;SDS011;14019;56.964;24.016;2023-01-16T16:37:21;12.45;;;4.47;;
26311;SDS011;14019;56.964;24.016;2023-01-16T16:42:58;7.90;;;4.07;;
26311;SDS011;14019;56.964;24.016;2023-01-16T16:45:45;12.05;;;4.47;;
26311;SDS011;14019;56.964;24.016;2023-01-16T16:48:31;9.15;;;4.13;;
26311;SDS011;14019;56.964;24.016;2023-01-16T16:51:19;10.60;;;4.68;;
26311;SDS011;14019;56.964;24.016;2023-01-16T16:54:08;9.98;;;4.28;;
26311;SDS011;14019;56.964;24.016;2023-01-16T16:56:56;12.63;;;4.03;;
26311;SDS011;14019;56.964;24.016;2023-01-16T16:59:43;9.45;;;4.05;;
26311;SDS011;14019;56.964;24.016;2023-01-16T17:02:30;10.10;;;4.07;;
26311;SDS011;14019;56.964;24.016;2023-01-16T17:05:17;11.23;;;4.50;;
26311;SDS011;14019;56.964;24.016;2023-01-16T17:08:13;10.13;;;4.07;;
26311;SDS011;14019;56.964;24.016;2023-01-16T17:11:01;12.25;;;5.03;;
26311;SDS011;14019;56.964;24.016;2023-01-16T17:13:47;10.10;;;4.97;;
26311;SDS011;14019;56.964;24.016;2023-01-16T17:16:33;11.18;;;5.30;;
26311;SDS011;14019;56.964;24.016;2023-01-16T17:19:26;11.68;;;5.38;;
26311;SDS011;14019;56.964;24.016;2023-01-16T17:22:14;10.73;;;5.40;;
26311;SDS011;14019;56.964;24.016;2023-01-16T17:25:00;13.65;;;5.80;;
26311;SDS011;14019;56.964;24.016;2023-01-16T17:27:50;14.75;;;5.40;;
26311;SDS011;14019;56.964;24.016;2023-01-16T17:30:37;12.43;;;6.05;;
26311;SDS011;14019;56.964;24.016;2023-01-16T17:33:25;9.52;;;5.60;;
26311;SDS011;14019;56.964;24.016;2023-01-16T17:36:21;11.63;;;5.18;;
26311;SDS011;14019;56.964;24.016;2023-01-16T17:39:08;11.35;;;5.40;;
26311;SDS011;14019;56.964;24.016;2023-01-16T17:41:58;12.55;;;5.28;;
26311;SDS011;14019;56.964;24.016;2023-01-16T17:44:45;13.25;;;5.45;;
26311;SDS011;14019;56.964;24.016;2023-01-16T17:47:50;11.88;;;5.68;;
26311;SDS011;14019;56.964;24.016;2023-01-16T17:50:37;15.38;;;5.82;;
26311;SDS011;14019;56.964;24.016;2023-01-16T17:53:25;14.75;;;5.68;;
26311;SDS011;14019;56.964;24.016;2023-01-16T17:56:12;12.68;;;5.88;;
26311;SDS011;14019;56.964;24.016;2023-01-16T17:58:58;15.05;;;6.15;;
26311;SDS011;14019;56.964;24.016;2023-01-16T18:01:53;17.55;;;7.13;;
26311;SDS011;14019;56.964;24.016;2023-01-16T18:04:39;16.48;;;7.70;;
26311;SDS011;14019;56.964;24.016;2023-01-16T18:07:32;15.52;;;7.03;;
26311;SDS011;14019;56.964;24.016;2023-01-16T18:10:18;14.63;;;7.28;;
26311;SDS011;14019;56.964;24.016;2023-01-16T18:13:05;15.18;;;7.85;;
26311;SDS011;14019;56.964;24.016;2023-01-16T18:16:14;18.17;;;7.70;;
26311;SDS011;14019;56.964;24.016;2023-01-16T18:19:19;18.25;;;7.63;;
26311;SDS011;14019;56.964;24.016;2023-01-16T18:22:06;14.60;;;7.03;;
26311;SDS011;14019;56.964;24.016;2023-01-16T18:24:53;15.35;;;7.82;;
26311;SDS011;14019;56.964;24.016;2023-01-16T18:27:40;15.18;;;6.85;;
26311;SDS011;14019;56.964;24.016;2023-01-16T18:30:27;15.38;;;6.95;;
26311;SDS011;14019;56.964;24.016;2023-01-16T18:33:13;14.48;;;7.07;;
26311;SDS011;14019;56.964;24.016;2023-01-16T18:36:01;13.48;;;7.00;;
26311;SDS011;14019;56.964;24.016;2023-01-16T18:38:48;12.95;;;6.75;;
26311;SDS011;14019;56.964;24.016;2023-01-16T18:41:53;11.57;;;6.20;;
26311;SDS011;14019;56.964;24.016;2023-01-16T18:45:00;15.43;;;6.05;;
26311;SDS011;14019;56.964;24.016;2023-01-16T18:48:05;17.70;;;6.32;;
26311;SDS011;14019;56.964;24.016;2023-01-16T18:51:14;15.40;;;6.47;;
26311;SDS011;14019;56.964;24.016;2023-01-16T18:54:22;14.25;;;6.63;;
26311;SDS011;14019;56.964;24.016;2023-01-16T18:57:27;15.55;;;6.90;;
26311;SDS011;14019;56.964;24.016;2023-01-16T19:00:36;15.50;;;7.18;;
26311;SDS011;14019;56.964;24.016;2023-01-16T19:03:41;14.60;;;6.53;;
26311;SDS011;14019;56.964;24.016;2023-01-16T19:06:28;13.77;;;6.97;;
26311;SDS011;14019;56.964;24.016;2023-01-16T19:09:14;14.75;;;7.70;;
26311;SDS011;14019;56.964;24.016;2023-01-16T19:12:01;16.13;;;8.15;;
26311;SDS011;14019;56.964;24.016;2023-01-16T19:14:50;16.92;;;8.05;;
26311;SDS011;14019;56.964;24.016;2023-01-16T19:17:38;14.48;;;7.50;;
26311;SDS011;14019;56.964;24.016;2023-01-16T19:20:24;17.52;;;8.43;;
26311;SDS011;14019;56.964;24.016;2023-01-16T19:23:12;14.57;;;8.00;;
26311;SDS011;14019;56.964;24.016;2023-01-16T19:26:02;16.67;;;9.00;;
26311;SDS011;14019;56.964;24.016;2023-01-16T19:28:49;18.05;;;8.63;;
26311;SDS011;14019;56.964;24.016;2023-01-16T19:31:36;17.58;;;8.50;;